sensor_id;sensor_type;location;lat;lon;timestamp;temperature;humidity
22235;DHT22;11286;45.596;5.284;2022-07-01T00:00:32;17.10;1.00
22235;DHT22;11286;45.596;5.284;2022-07-01T00:02:58;17.20;1.00
22235;DHT22;11286;45.596;5.284;2022-07-01T00:05:23;16.80;1.00
22235;DHT22;11286;45.596;5.284;2022-07-01T00:07:49;16.80;1.00
22235;DHT22;11286;45.596;5.284;2022-07-01T00:10:15;16.80;1.00
22235;DHT22;11286;45.596;5.284;2022-07-01T00:12:41;16.80;1.00
22235;DHT22;11286;45.596;5.284;2022-07-01T00:15:07;16.70;1.00
22235;DHT22;11286;45.596;5.284;2022-07-01T00:17:33;17.00;1.00
22235;DHT22;11286;45.596;5.284;2022-07-01T00:19:59;17.00;1.00
22235;DHT22;11286;45.596;5.284;2022-07-01T00:22:24;16.60;1.00
22235;DHT22;11286;45.596;5.284;2022-07-01T00:24:50;16.70;1.00
22235;DHT22;11286;45.596;5.284;2022-07-01T00:27:17;16.40;1.00
22235;DHT22;11286;45.596;5.284;2022-07-01T00:29:42;16.40;1.00
22235;DHT22;11286;45.596;5.284;2022-07-01T00:32:08;16.40;1.00
22235;DHT22;11286;45.596;5.284;2022-07-01T00:34:34;16.20;1.00
22235;DHT22;11286;45.596;5.284;2022-07-01T00:37:00;16.40;1.00
22235;DHT22;11286;45.596;5.284;2022-07-01T00:39:26;16.40;1.00
22235;DHT22;11286;45.596;5.284;2022-07-01T00:41:51;16.30;1.00
22235;DHT22;11286;45.596;5.284;2022-07-01T00:44:20;15.90;1.00
22235;DHT22;11286;45.596;5.284;2022-07-01T00:46:48;15.80;1.00
22235;DHT22;11286;45.596;5.284;2022-07-01T00:49:15;16.00;1.00
22235;DHT22;11286;45.596;5.284;2022-07-01T00:51:41;16.10;1.00
22235;DHT22;11286;45.596;5.284;2022-07-01T00:54:07;16.20;1.00
22235;DHT22;11286;45.596;5.284;2022-07-01T00:56:33;16.30;1.00
22235;DHT22;11286;45.596;5.284;2022-07-01T00:58:59;16.50;1.00
22235;DHT22;11286;45.596;5.284;2022-07-01T01:01:25;16.40;1.00
22235;DHT22;11286;45.596;5.284;2022-07-01T01:03:50;16.30;1.00
22235;DHT22;11286;45.596;5.284;2022-07-01T01:06:16;16.30;1.00
22235;DHT22;11286;45.596;5.284;2022-07-01T01:08:42;16.40;1.00
22235;DHT22;11286;45.596;5.284;2022-07-01T01:11:08;16.40;1.00
22235;DHT22;11286;45.596;5.284;2022-07-01T01:13:34;16.40;1.00
22235;DHT22;11286;45.596;5.284;2022-07-01T01:16:00;16.40;1.00
22235;DHT22;11286;45.596;5.284;2022-07-01T01:18:26;16.60;1.00
22235;DHT22;11286;45.596;5.284;2022-07-01T01:20:55;16.60;1.00
22235;DHT22;11286;45.596;5.284;2022-07-01T01:23:20;16.50;1.00
22235;DHT22;11286;45.596;5.284;2022-07-01T01:25:49;16.30;1.00
22235;DHT22;11286;45.596;5.284;2022-07-01T01:28:15;16.20;1.00
22235;DHT22;11286;45.596;5.284;2022-07-01T01:30:41;16.10;1.00
22235;DHT22;11286;45.596;5.284;2022-07-01T01:33:06;16.20;1.00
22235;DHT22;11286;45.596;5.284;2022-07-01T01:35:34;16.20;1.00
22235;DHT22;11286;45.596;5.284;2022-07-01T01:38:00;16.00;1.00
22235;DHT22;11286;45.596;5.284;2022-07-01T01:40:26;16.00;1.00
22235;DHT22;11286;45.596;5.284;2022-07-01T01:42:51;16.10;1.00
22235;DHT22;11286;45.596;5.284;2022-07-01T01:45:17;16.20;1.00
22235;DHT22;11286;45.596;5.284;2022-07-01T01:47:43;16.20;1.00
22235;DHT22;11286;45.596;5.284;2022-07-01T01:50:10;16.20;1.00
22235;DHT22;11286;45.596;5.284;2022-07-01T01:52:37;16.30;1.00
22235;DHT22;11286;45.596;5.284;2022-07-01T01:55:08;15.90;1.00
22235;DHT22;11286;45.596;5.284;2022-07-01T01:57:34;15.90;1.00
22235;DHT22;11286;45.596;5.284;2022-07-01T02:00:00;16.10;1.00
22235;DHT22;11286;45.596;5.284;2022-07-01T02:02:26;16.10;1.00
22235;DHT22;11286;45.596;5.284;2022-07-01T02:04:52;16.20;1.00
22235;DHT22;11286;45.596;5.284;2022-07-01T02:07:17;16.00;1.00
22235;DHT22;11286;45.596;5.284;2022-07-01T02:09:43;15.80;1.00
22235;DHT22;11286;45.596;5.284;2022-07-01T02:12:09;15.80;1.00
22235;DHT22;11286;45.596;5.284;2022-07-01T02:14:35;15.90;1.00
22235;DHT22;11286;45.596;5.284;2022-07-01T02:17:00;15.90;1.00
22235;DHT22;11286;45.596;5.284;2022-07-01T02:19:26;16.00;1.00
22235;DHT22;11286;45.596;5.284;2022-07-01T02:21:52;16.10;1.00
22235;DHT22;11286;45.596;5.284;2022-07-01T02:24:18;16.00;1.00
22235;DHT22;11286;45.596;5.284;2022-07-01T02:26:44;16.10;1.00
22235;DHT22;11286;45.596;5.284;2022-07-01T02:29:10;16.10;1.00
22235;DHT22;11286;45.596;5.284;2022-07-01T02:31:35;16.00;1.00
22235;DHT22;11286;45.596;5.284;2022-07-01T02:34:01;16.00;1.00
22235;DHT22;11286;45.596;5.284;2022-07-01T02:36:26;15.90;1.00
22235;DHT22;11286;45.596;5.284;2022-07-01T02:38:52;16.00;1.00
22235;DHT22;11286;45.596;5.284;2022-07-01T02:41:18;16.20;1.00
22235;DHT22;11286;45.596;5.284;2022-07-01T02:43:43;16.20;1.00
22235;DHT22;11286;45.596;5.284;2022-07-01T02:46:09;16.00;1.00
22235;DHT22;11286;45.596;5.284;2022-07-01T02:48:34;15.90;1.00
22235;DHT22;11286;45.596;5.284;2022-07-01T02:51:00;15.80;1.00
22235;DHT22;11286;45.596;5.284;2022-07-01T02:53:25;15.80;1.00
22235;DHT22;11286;45.596;5.284;2022-07-01T02:55:51;15.90;1.00
22235;DHT22;11286;45.596;5.284;2022-07-01T02:58:17;15.70;1.00
22235;DHT22;11286;45.596;5.284;2022-07-01T03:00:42;15.70;1.00
22235;DHT22;11286;45.596;5.284;2022-07-01T03:03:08;15.80;1.00
22235;DHT22;11286;45.596;5.284;2022-07-01T03:05:34;15.80;1.00
22235;DHT22;11286;45.596;5.284;2022-07-01T03:07:59;15.60;1.00
22235;DHT22;11286;45.596;5.284;2022-07-01T03:10:25;15.50;1.00
22235;DHT22;11286;45.596;5.284;2022-07-01T03:12:50;15.60;1.00
22235;DHT22;11286;45.596;5.284;2022-07-01T03:15:16;15.80;1.00
22235;DHT22;11286;45.596;5.284;2022-07-01T03:17:46;16.00;1.00
22235;DHT22;11286;45.596;5.284;2022-07-01T03:20:15;16.10;1.00
22235;DHT22;11286;45.596;5.284;2022-07-01T03:22:42;16.10;1.00
22235;DHT22;11286;45.596;5.284;2022-07-01T03:25:08;16.20;1.00
22235;DHT22;11286;45.596;5.284;2022-07-01T03:27:34;16.10;1.00
22235;DHT22;11286;45.596;5.284;2022-07-01T03:30:00;16.00;1.00
22235;DHT22;11286;45.596;5.284;2022-07-01T03:32:26;15.90;1.00
22235;DHT22;11286;45.596;5.284;2022-07-01T03:34:53;15.90;1.00
22235;DHT22;11286;45.596;5.284;2022-07-01T03:37:20;15.90;1.00
22235;DHT22;11286;45.596;5.284;2022-07-01T03:39:46;15.80;1.00
22235;DHT22;11286;45.596;5.284;2022-07-01T03:42:12;15.60;1.00
22235;DHT22;11286;45.596;5.284;2022-07-01T03:44:38;15.80;1.00
22235;DHT22;11286;45.596;5.284;2022-07-01T03:47:05;15.90;1.00
22235;DHT22;11286;45.596;5.284;2022-07-01T03:49:34;16.00;1.00
22235;DHT22;11286;45.596;5.284;2022-07-01T03:52:01;15.90;1.00
22235;DHT22;11286;45.596;5.284;2022-07-01T03:54:28;16.00;1.00
22235;DHT22;11286;45.596;5.284;2022-07-01T03:56:59;16.10;1.00
22235;DHT22;11286;45.596;5.284;2022-07-01T03:59:26;16.00;1.00
22235;DHT22;11286;45.596;5.284;2022-07-01T04:01:53;16.00;1.00
22235;DHT22;11286;45.596;5.284;2022-07-01T04:04:19;16.20;1.00
22235;DHT22;11286;45.596;5.284;2022-07-01T04:06:46;16.10;1.00
22235;DHT22;11286;45.596;5.284;2022-07-01T04:09:13;16.00;1.00
22235;DHT22;11286;45.596;5.284;2022-07-01T04:11:40;16.00;1.00
22235;DHT22;11286;45.596;5.284;2022-07-01T04:14:06;16.10;1.00
22235;DHT22;11286;45.596;5.284;2022-07-01T04:16:32;16.00;1.00
22235;DHT22;11286;45.596;5.284;2022-07-01T04:18:58;16.20;1.00
22235;DHT22;11286;45.596;5.284;2022-07-01T04:21:23;15.90;1.00
22235;DHT22;11286;45.596;5.284;2022-07-01T04:24:07;15.90;1.00
22235;DHT22;11286;45.596;5.284;2022-07-01T04:26:34;15.90;1.00
22235;DHT22;11286;45.596;5.284;2022-07-01T04:29:00;15.70;1.00
22235;DHT22;11286;45.596;5.284;2022-07-01T04:31:25;15.70;1.00
22235;DHT22;11286;45.596;5.284;2022-07-01T04:33:51;15.70;1.00
22235;DHT22;11286;45.596;5.284;2022-07-01T04:36:17;15.80;1.00
22235;DHT22;11286;45.596;5.284;2022-07-01T04:38:43;15.60;1.00
22235;DHT22;11286;45.596;5.284;2022-07-01T04:41:09;15.70;1.00
22235;DHT22;11286;45.596;5.284;2022-07-01T04:43:53;15.60;1.00
22235;DHT22;11286;45.596;5.284;2022-07-01T04:46:19;15.50;1.00
22235;DHT22;11286;45.596;5.284;2022-07-01T04:48:44;15.50;1.00
22235;DHT22;11286;45.596;5.284;2022-07-01T04:51:10;15.50;1.00
22235;DHT22;11286;45.596;5.284;2022-07-01T04:53:35;15.70;1.00
22235;DHT22;11286;45.596;5.284;2022-07-01T04:56:01;15.40;1.00
22235;DHT22;11286;45.596;5.284;2022-07-01T04:58:27;15.80;1.00
22235;DHT22;11286;45.596;5.284;2022-07-01T05:00:52;15.60;1.00
22235;DHT22;11286;45.596;5.284;2022-07-01T05:03:18;15.80;1.00
22235;DHT22;11286;45.596;5.284;2022-07-01T05:05:44;15.60;1.00
22235;DHT22;11286;45.596;5.284;2022-07-01T05:08:10;15.70;1.00
22235;DHT22;11286;45.596;5.284;2022-07-01T05:10:36;15.70;1.00
22235;DHT22;11286;45.596;5.284;2022-07-01T05:13:02;15.60;1.00
22235;DHT22;11286;45.596;5.284;2022-07-01T05:15:28;15.70;1.00
22235;DHT22;11286;45.596;5.284;2022-07-01T05:17:54;15.70;1.00
22235;DHT22;11286;45.596;5.284;2022-07-01T05:20:38;15.80;1.00
22235;DHT22;11286;45.596;5.284;2022-07-01T05:23:22;15.90;1.00
22235;DHT22;11286;45.596;5.284;2022-07-01T05:25:48;15.90;1.00
22235;DHT22;11286;45.596;5.284;2022-07-01T05:28:14;16.00;1.00
22235;DHT22;11286;45.596;5.284;2022-07-01T05:30:39;15.90;1.00
22235;DHT22;11286;45.596;5.284;2022-07-01T05:33:05;15.90;1.00
22235;DHT22;11286;45.596;5.284;2022-07-01T05:35:31;16.00;1.00
22235;DHT22;11286;45.596;5.284;2022-07-01T05:37:57;16.20;1.00
22235;DHT22;11286;45.596;5.284;2022-07-01T05:40:23;16.30;1.00
22235;DHT22;11286;45.596;5.284;2022-07-01T05:42:48;16.50;1.00
22235;DHT22;11286;45.596;5.284;2022-07-01T05:45:14;16.40;1.00
22235;DHT22;11286;45.596;5.284;2022-07-01T05:47:39;16.30;1.00
22235;DHT22;11286;45.596;5.284;2022-07-01T05:50:06;16.20;1.00
22235;DHT22;11286;45.596;5.284;2022-07-01T05:52:32;16.20;1.00
22235;DHT22;11286;45.596;5.284;2022-07-01T05:54:57;16.20;1.00
22235;DHT22;11286;45.596;5.284;2022-07-01T05:57:23;16.20;1.00
22235;DHT22;11286;45.596;5.284;2022-07-01T05:59:49;16.20;1.00
22235;DHT22;11286;45.596;5.284;2022-07-01T06:02:14;16.30;1.00
22235;DHT22;11286;45.596;5.284;2022-07-01T06:04:40;16.20;1.00
22235;DHT22;11286;45.596;5.284;2022-07-01T06:07:08;16.20;1.00
22235;DHT22;11286;45.596;5.284;2022-07-01T06:09:36;16.20;1.00
22235;DHT22;11286;45.596;5.284;2022-07-01T06:12:02;16.50;1.00
22235;DHT22;11286;45.596;5.284;2022-07-01T06:14:28;16.70;1.00
22235;DHT22;11286;45.596;5.284;2022-07-01T06:16:53;16.90;1.00
22235;DHT22;11286;45.596;5.284;2022-07-01T06:19:19;16.90;1.00
22235;DHT22;11286;45.596;5.284;2022-07-01T06:21:45;17.20;1.00
22235;DHT22;11286;45.596;5.284;2022-07-01T06:24:11;17.50;1.00
22235;DHT22;11286;45.596;5.284;2022-07-01T06:26:38;17.70;1.00
22235;DHT22;11286;45.596;5.284;2022-07-01T06:29:04;17.40;1.00
22235;DHT22;11286;45.596;5.284;2022-07-01T06:31:30;17.60;1.00
22235;DHT22;11286;45.596;5.284;2022-07-01T06:33:58;17.30;1.00
22235;DHT22;11286;45.596;5.284;2022-07-01T06:36:24;16.80;1.00
22235;DHT22;11286;45.596;5.284;2022-07-01T06:38:49;17.10;1.00
22235;DHT22;11286;45.596;5.284;2022-07-01T06:41:15;17.10;1.00
22235;DHT22;11286;45.596;5.284;2022-07-01T06:43:56;17.40;1.00
22235;DHT22;11286;45.596;5.284;2022-07-01T06:46:22;17.50;1.00
22235;DHT22;11286;45.596;5.284;2022-07-01T06:48:48;18.10;1.00
22235;DHT22;11286;45.596;5.284;2022-07-01T06:51:14;17.90;1.00
22235;DHT22;11286;45.596;5.284;2022-07-01T06:53:40;17.80;1.00
22235;DHT22;11286;45.596;5.284;2022-07-01T06:56:05;17.90;1.00
22235;DHT22;11286;45.596;5.284;2022-07-01T06:58:32;17.80;1.00
22235;DHT22;11286;45.596;5.284;2022-07-01T07:00:57;17.90;1.00
22235;DHT22;11286;45.596;5.284;2022-07-01T07:03:23;18.00;1.00
22235;DHT22;11286;45.596;5.284;2022-07-01T07:05:49;18.20;1.00
22235;DHT22;11286;45.596;5.284;2022-07-01T07:08:15;17.90;1.00
22235;DHT22;11286;45.596;5.284;2022-07-01T07:10:41;17.80;1.00
22235;DHT22;11286;45.596;5.284;2022-07-01T07:13:07;17.90;1.00
22235;DHT22;11286;45.596;5.284;2022-07-01T07:15:32;18.20;1.00
22235;DHT22;11286;45.596;5.284;2022-07-01T07:17:58;18.20;1.00
22235;DHT22;11286;45.596;5.284;2022-07-01T07:20:24;18.30;1.00
22235;DHT22;11286;45.596;5.284;2022-07-01T07:22:50;18.20;1.00
22235;DHT22;11286;45.596;5.284;2022-07-01T07:25:16;18.00;1.00
22235;DHT22;11286;45.596;5.284;2022-07-01T07:27:42;18.20;1.00
22235;DHT22;11286;45.596;5.284;2022-07-01T07:30:14;18.40;1.00
22235;DHT22;11286;45.596;5.284;2022-07-01T07:32:40;18.60;1.00
22235;DHT22;11286;45.596;5.284;2022-07-01T07:35:06;18.60;1.00
22235;DHT22;11286;45.596;5.284;2022-07-01T07:37:32;18.60;1.00
22235;DHT22;11286;45.596;5.284;2022-07-01T07:39:59;18.70;1.00
22235;DHT22;11286;45.596;5.284;2022-07-01T07:42:27;19.00;1.00
22235;DHT22;11286;45.596;5.284;2022-07-01T07:44:53;19.20;1.00
22235;DHT22;11286;45.596;5.284;2022-07-01T07:47:19;18.90;1.00
22235;DHT22;11286;45.596;5.284;2022-07-01T07:49:44;19.00;1.00
22235;DHT22;11286;45.596;5.284;2022-07-01T07:52:10;18.80;1.00
22235;DHT22;11286;45.596;5.284;2022-07-01T07:54:36;18.60;1.00
22235;DHT22;11286;45.596;5.284;2022-07-01T07:57:02;18.50;1.00
22235;DHT22;11286;45.596;5.284;2022-07-01T07:59:27;18.70;1.00
22235;DHT22;11286;45.596;5.284;2022-07-01T08:01:53;18.70;1.00
22235;DHT22;11286;45.596;5.284;2022-07-01T08:04:20;19.40;1.00
22235;DHT22;11286;45.596;5.284;2022-07-01T08:06:45;19.20;1.00
22235;DHT22;11286;45.596;5.284;2022-07-01T08:09:11;19.30;1.00
22235;DHT22;11286;45.596;5.284;2022-07-01T08:11:37;19.40;1.00
22235;DHT22;11286;45.596;5.284;2022-07-01T08:14:03;19.50;1.00
22235;DHT22;11286;45.596;5.284;2022-07-01T08:16:28;19.50;1.00
22235;DHT22;11286;45.596;5.284;2022-07-01T08:18:54;19.50;1.00
22235;DHT22;11286;45.596;5.284;2022-07-01T08:21:21;19.80;1.00
22235;DHT22;11286;45.596;5.284;2022-07-01T08:23:46;20.30;1.00
22235;DHT22;11286;45.596;5.284;2022-07-01T08:26:12;20.70;1.00
22235;DHT22;11286;45.596;5.284;2022-07-01T08:28:39;20.60;1.00
22235;DHT22;11286;45.596;5.284;2022-07-01T08:31:05;20.60;1.00
22235;DHT22;11286;45.596;5.284;2022-07-01T08:33:31;20.60;1.00
22235;DHT22;11286;45.596;5.284;2022-07-01T08:35:56;20.70;1.00
22235;DHT22;11286;45.596;5.284;2022-07-01T08:38:22;20.70;1.00
22235;DHT22;11286;45.596;5.284;2022-07-01T08:40:48;20.90;1.00
22235;DHT22;11286;45.596;5.284;2022-07-01T08:43:13;21.00;1.00
22235;DHT22;11286;45.596;5.284;2022-07-01T08:45:39;20.80;1.00
22235;DHT22;11286;45.596;5.284;2022-07-01T08:48:05;20.70;1.00
22235;DHT22;11286;45.596;5.284;2022-07-01T08:50:37;20.60;1.00
22235;DHT22;11286;45.596;5.284;2022-07-01T08:53:04;20.60;1.00
22235;DHT22;11286;45.596;5.284;2022-07-01T08:55:30;20.70;1.00
22235;DHT22;11286;45.596;5.284;2022-07-01T08:57:56;21.00;1.00
22235;DHT22;11286;45.596;5.284;2022-07-01T09:00:22;21.20;1.00
22235;DHT22;11286;45.596;5.284;2022-07-01T09:02:53;21.10;1.00
22235;DHT22;11286;45.596;5.284;2022-07-01T09:05:20;21.80;1.00
22235;DHT22;11286;45.596;5.284;2022-07-01T09:07:47;21.80;1.00
22235;DHT22;11286;45.596;5.284;2022-07-01T09:10:15;21.10;1.00
22235;DHT22;11286;45.596;5.284;2022-07-01T09:12:43;20.80;1.00
22235;DHT22;11286;45.596;5.284;2022-07-01T09:15:20;20.40;1.00
22235;DHT22;11286;45.596;5.284;2022-07-01T09:17:46;20.40;1.00
22235;DHT22;11286;45.596;5.284;2022-07-01T09:20:33;20.70;1.00
22235;DHT22;11286;45.596;5.284;2022-07-01T09:23:11;20.80;1.00
22235;DHT22;11286;45.596;5.284;2022-07-01T09:28:07;21.60;1.00
22235;DHT22;11286;45.596;5.284;2022-07-01T09:30:33;21.60;1.00
22235;DHT22;11286;45.596;5.284;2022-07-01T09:33:10;21.60;1.00
22235;DHT22;11286;45.596;5.284;2022-07-01T09:35:36;21.90;1.00
22235;DHT22;11286;45.596;5.284;2022-07-01T09:38:04;21.80;1.00
22235;DHT22;11286;45.596;5.284;2022-07-01T09:40:50;22.00;1.00
22235;DHT22;11286;45.596;5.284;2022-07-01T09:43:24;22.10;1.00
22235;DHT22;11286;45.596;5.284;2022-07-01T09:48:17;22.00;1.00
22235;DHT22;11286;45.596;5.284;2022-07-01T09:50:44;22.10;1.00
22235;DHT22;11286;45.596;5.284;2022-07-01T09:53:10;21.80;1.00
22235;DHT22;11286;45.596;5.284;2022-07-01T09:55:36;22.00;1.00
22235;DHT22;11286;45.596;5.284;2022-07-01T09:58:02;22.60;1.00
22235;DHT22;11286;45.596;5.284;2022-07-01T10:00:29;22.70;1.00
22235;DHT22;11286;45.596;5.284;2022-07-01T10:02:57;22.90;1.00
22235;DHT22;11286;45.596;5.284;2022-07-01T10:05:25;23.10;1.00
22235;DHT22;11286;45.596;5.284;2022-07-01T10:07:57;23.00;1.00
22235;DHT22;11286;45.596;5.284;2022-07-01T10:10:51;22.90;1.00
22235;DHT22;11286;45.596;5.284;2022-07-01T10:13:24;22.60;1.00
22235;DHT22;11286;45.596;5.284;2022-07-01T10:15:52;23.50;1.00
22235;DHT22;11286;45.596;5.284;2022-07-01T10:18:27;23.40;1.00
22235;DHT22;11286;45.596;5.284;2022-07-01T10:20:55;23.40;1.00
22235;DHT22;11286;45.596;5.284;2022-07-01T10:23:22;23.30;1.00
22235;DHT22;11286;45.596;5.284;2022-07-01T10:25:53;23.60;1.00
22235;DHT22;11286;45.596;5.284;2022-07-01T10:33:33;23.60;1.00
22235;DHT22;11286;45.596;5.284;2022-07-01T10:36:07;23.60;1.00
22235;DHT22;11286;45.596;5.284;2022-07-01T10:38:33;23.20;1.00
22235;DHT22;11286;45.596;5.284;2022-07-01T10:40:59;23.50;1.00
22235;DHT22;11286;45.596;5.284;2022-07-01T10:43:36;23.80;1.00
22235;DHT22;11286;45.596;5.284;2022-07-01T10:46:03;24.30;1.00
22235;DHT22;11286;45.596;5.284;2022-07-01T10:48:34;24.30;1.00
22235;DHT22;11286;45.596;5.284;2022-07-01T10:51:00;24.00;1.00
22235;DHT22;11286;45.596;5.284;2022-07-01T10:53:51;23.80;1.00
22235;DHT22;11286;45.596;5.284;2022-07-01T10:56:17;24.10;1.00
22235;DHT22;11286;45.596;5.284;2022-07-01T10:58:42;24.70;1.00
22235;DHT22;11286;45.596;5.284;2022-07-01T11:01:08;24.60;1.00
22235;DHT22;11286;45.596;5.284;2022-07-01T11:03:36;24.70;1.00
22235;DHT22;11286;45.596;5.284;2022-07-01T11:06:04;25.10;1.00
22235;DHT22;11286;45.596;5.284;2022-07-01T11:08:30;25.10;1.00
22235;DHT22;11286;45.596;5.284;2022-07-01T11:10:57;25.30;1.00
22235;DHT22;11286;45.596;5.284;2022-07-01T11:13:26;24.80;1.00
22235;DHT22;11286;45.596;5.284;2022-07-01T11:15:52;24.50;1.00
22235;DHT22;11286;45.596;5.284;2022-07-01T11:18:19;24.90;1.00
22235;DHT22;11286;45.596;5.284;2022-07-01T11:20:45;25.10;1.00
22235;DHT22;11286;45.596;5.284;2022-07-01T11:23:11;24.70;1.00
22235;DHT22;11286;45.596;5.284;2022-07-01T11:25:37;24.60;1.00
22235;DHT22;11286;45.596;5.284;2022-07-01T11:28:03;24.40;1.00
22235;DHT22;11286;45.596;5.284;2022-07-01T11:30:30;24.30;1.00
22235;DHT22;11286;45.596;5.284;2022-07-01T11:32:57;24.00;1.00
22235;DHT22;11286;45.596;5.284;2022-07-01T11:35:26;23.90;1.00
22235;DHT22;11286;45.596;5.284;2022-07-01T11:38:16;23.80;1.00
22235;DHT22;11286;45.596;5.284;2022-07-01T11:41:04;24.10;1.00
22235;DHT22;11286;45.596;5.284;2022-07-01T11:43:32;24.40;1.00
22235;DHT22;11286;45.596;5.284;2022-07-01T11:46:00;24.90;1.00
22235;DHT22;11286;45.596;5.284;2022-07-01T11:48:42;24.60;1.00
22235;DHT22;11286;45.596;5.284;2022-07-01T11:51:09;24.60;1.00
22235;DHT22;11286;45.596;5.284;2022-07-01T11:53:35;24.70;1.00
22235;DHT22;11286;45.596;5.284;2022-07-01T11:56:01;24.70;1.00
22235;DHT22;11286;45.596;5.284;2022-07-01T11:58:50;24.70;1.00
22235;DHT22;11286;45.596;5.284;2022-07-01T12:01:33;24.20;1.00
22235;DHT22;11286;45.596;5.284;2022-07-01T12:04:02;24.10;1.00
22235;DHT22;11286;45.596;5.284;2022-07-01T12:06:29;24.20;1.00
22235;DHT22;11286;45.596;5.284;2022-07-01T12:08:55;24.50;1.00
22235;DHT22;11286;45.596;5.284;2022-07-01T12:11:23;24.50;1.00
22235;DHT22;11286;45.596;5.284;2022-07-01T12:13:50;24.30;1.00
22235;DHT22;11286;45.596;5.284;2022-07-01T12:16:16;25.20;1.00
22235;DHT22;11286;45.596;5.284;2022-07-01T12:18:59;29.80;1.00
22235;DHT22;11286;45.596;5.284;2022-07-01T12:21:27;31.00;1.00
22235;DHT22;11286;45.596;5.284;2022-07-01T12:24:07;32.50;1.00
22235;DHT22;11286;45.596;5.284;2022-07-01T12:26:33;33.40;1.00
22235;DHT22;11286;45.596;5.284;2022-07-01T12:28:58;33.50;1.00
22235;DHT22;11286;45.596;5.284;2022-07-01T12:31:24;34.60;1.00
22235;DHT22;11286;45.596;5.284;2022-07-01T12:33:51;34.70;1.00
22235;DHT22;11286;45.596;5.284;2022-07-01T12:36:17;35.30;1.00
22235;DHT22;11286;45.596;5.284;2022-07-01T12:38:43;34.40;1.00
22235;DHT22;11286;45.596;5.284;2022-07-01T12:41:29;34.60;1.00
22235;DHT22;11286;45.596;5.284;2022-07-01T12:43:55;34.30;1.00
22235;DHT22;11286;45.596;5.284;2022-07-01T12:46:30;31.20;1.00
22235;DHT22;11286;45.596;5.284;2022-07-01T12:48:57;30.60;1.00
22235;DHT22;11286;45.596;5.284;2022-07-01T12:51:31;29.20;1.00
22235;DHT22;11286;45.596;5.284;2022-07-01T12:53:57;31.60;1.00
22235;DHT22;11286;45.596;5.284;2022-07-01T12:56:25;33.40;1.00
22235;DHT22;11286;45.596;5.284;2022-07-01T12:58:51;33.70;1.00
22235;DHT22;11286;45.596;5.284;2022-07-01T13:01:20;33.00;1.00
22235;DHT22;11286;45.596;5.284;2022-07-01T13:03:46;33.00;1.00
22235;DHT22;11286;45.596;5.284;2022-07-01T13:06:12;33.50;1.00
22235;DHT22;11286;45.596;5.284;2022-07-01T13:08:38;33.40;1.00
22235;DHT22;11286;45.596;5.284;2022-07-01T13:11:04;33.50;1.00
22235;DHT22;11286;45.596;5.284;2022-07-01T13:13:31;33.80;1.00
22235;DHT22;11286;45.596;5.284;2022-07-01T13:15:57;33.80;1.00
22235;DHT22;11286;45.596;5.284;2022-07-01T13:18:22;32.00;1.00
22235;DHT22;11286;45.596;5.284;2022-07-01T13:20:48;31.00;1.00
22235;DHT22;11286;45.596;5.284;2022-07-01T13:23:14;31.10;1.00
22235;DHT22;11286;45.596;5.284;2022-07-01T13:25:40;31.10;1.00
22235;DHT22;11286;45.596;5.284;2022-07-01T13:28:06;30.70;1.00
22235;DHT22;11286;45.596;5.284;2022-07-01T13:30:32;31.80;1.00
22235;DHT22;11286;45.596;5.284;2022-07-01T13:32:58;32.50;1.00
22235;DHT22;11286;45.596;5.284;2022-07-01T13:35:24;32.60;1.00
22235;DHT22;11286;45.596;5.284;2022-07-01T13:37:50;31.70;1.00
22235;DHT22;11286;45.596;5.284;2022-07-01T13:40:16;31.80;1.00
22235;DHT22;11286;45.596;5.284;2022-07-01T13:42:42;31.10;1.00
22235;DHT22;11286;45.596;5.284;2022-07-01T13:45:08;31.40;1.00
22235;DHT22;11286;45.596;5.284;2022-07-01T13:47:34;30.50;1.00
22235;DHT22;11286;45.596;5.284;2022-07-01T13:50:00;31.40;1.00
22235;DHT22;11286;45.596;5.284;2022-07-01T13:52:26;32.20;1.00
22235;DHT22;11286;45.596;5.284;2022-07-01T13:54:55;32.60;1.00
22235;DHT22;11286;45.596;5.284;2022-07-01T13:57:22;30.20;1.00
22235;DHT22;11286;45.596;5.284;2022-07-01T13:59:48;31.20;1.00
22235;DHT22;11286;45.596;5.284;2022-07-01T14:02:14;31.50;1.00
22235;DHT22;11286;45.596;5.284;2022-07-01T14:04:41;31.90;1.00
22235;DHT22;11286;45.596;5.284;2022-07-01T14:07:06;31.10;1.00
22235;DHT22;11286;45.596;5.284;2022-07-01T14:09:32;30.50;1.00
22235;DHT22;11286;45.596;5.284;2022-07-01T14:11:58;31.20;1.00
22235;DHT22;11286;45.596;5.284;2022-07-01T14:14:24;31.70;1.00
22235;DHT22;11286;45.596;5.284;2022-07-01T14:16:49;31.00;1.00
22235;DHT22;11286;45.596;5.284;2022-07-01T14:19:15;31.20;1.00
22235;DHT22;11286;45.596;5.284;2022-07-01T14:21:40;31.40;1.00
22235;DHT22;11286;45.596;5.284;2022-07-01T14:24:06;30.80;1.00
22235;DHT22;11286;45.596;5.284;2022-07-01T14:26:32;30.60;1.00
22235;DHT22;11286;45.596;5.284;2022-07-01T14:28:58;30.60;1.00
22235;DHT22;11286;45.596;5.284;2022-07-01T14:31:23;30.90;1.00
22235;DHT22;11286;45.596;5.284;2022-07-01T14:33:49;31.30;1.00
22235;DHT22;11286;45.596;5.284;2022-07-01T14:36:14;31.50;1.00
22235;DHT22;11286;45.596;5.284;2022-07-01T14:38:40;30.90;1.00
22235;DHT22;11286;45.596;5.284;2022-07-01T14:41:06;31.10;1.00
22235;DHT22;11286;45.596;5.284;2022-07-01T14:43:31;30.80;1.00
22235;DHT22;11286;45.596;5.284;2022-07-01T14:45:58;30.50;1.00
22235;DHT22;11286;45.596;5.284;2022-07-01T14:48:23;30.90;1.00
22235;DHT22;11286;45.596;5.284;2022-07-01T14:50:49;30.70;1.00
22235;DHT22;11286;45.596;5.284;2022-07-01T14:53:15;30.90;1.00
22235;DHT22;11286;45.596;5.284;2022-07-01T14:55:40;30.70;1.00
22235;DHT22;11286;45.596;5.284;2022-07-01T14:58:06;30.80;1.00
22235;DHT22;11286;45.596;5.284;2022-07-01T15:00:32;30.30;1.00
22235;DHT22;11286;45.596;5.284;2022-07-01T15:03:02;30.40;1.00
22235;DHT22;11286;45.596;5.284;2022-07-01T15:05:29;30.20;1.00
22235;DHT22;11286;45.596;5.284;2022-07-01T15:07:55;29.70;1.00
22235;DHT22;11286;45.596;5.284;2022-07-01T15:10:21;30.20;1.00
22235;DHT22;11286;45.596;5.284;2022-07-01T15:12:46;30.60;1.00
22235;DHT22;11286;45.596;5.284;2022-07-01T15:15:12;30.40;1.00
22235;DHT22;11286;45.596;5.284;2022-07-01T15:17:42;29.90;1.00
22235;DHT22;11286;45.596;5.284;2022-07-01T15:20:09;29.40;1.00
22235;DHT22;11286;45.596;5.284;2022-07-01T15:22:35;29.80;1.00
22235;DHT22;11286;45.596;5.284;2022-07-01T15:25:00;29.90;1.00
22235;DHT22;11286;45.596;5.284;2022-07-01T15:27:26;30.30;1.00
22235;DHT22;11286;45.596;5.284;2022-07-01T15:29:51;30.40;1.00
22235;DHT22;11286;45.596;5.284;2022-07-01T15:32:17;29.70;1.00
22235;DHT22;11286;45.596;5.284;2022-07-01T15:34:43;30.20;1.00
22235;DHT22;11286;45.596;5.284;2022-07-01T15:37:08;30.00;1.00
22235;DHT22;11286;45.596;5.284;2022-07-01T15:39:35;29.50;1.00
22235;DHT22;11286;45.596;5.284;2022-07-01T15:42:00;29.60;1.00
22235;DHT22;11286;45.596;5.284;2022-07-01T15:44:28;29.40;1.00
22235;DHT22;11286;45.596;5.284;2022-07-01T15:46:55;29.50;1.00
22235;DHT22;11286;45.596;5.284;2022-07-01T15:49:21;29.30;1.00
22235;DHT22;11286;45.596;5.284;2022-07-01T15:51:46;29.10;1.00
22235;DHT22;11286;45.596;5.284;2022-07-01T15:54:12;29.30;1.00